sensor_id;sensor_type;location;lat;lon;timestamp;pressure;altitude;pressure_sealevel;temperature;humidity
44297;BME280;51842;47.450;8.654;2022-07-03T14:56:19;95673.53;;;37.56;22.90
44297;BME280;51842;47.450;8.654;2022-07-03T14:58:50;95667.91;;;37.43;23.74
44297;BME280;51842;47.450;8.654;2022-07-03T15:01:18;95662.06;;;37.25;24.92
44297;BME280;51842;47.450;8.654;2022-07-03T15:04:22;95662.28;;;37.01;26.04
44297;BME280;51842;47.450;8.654;2022-07-03T15:06:57;95658.72;;;36.68;24.25
44297;BME280;51842;47.450;8.654;2022-07-03T15:09:37;95649.00;;;36.76;25.68
44297;BME280;51842;47.450;8.654;2022-07-03T15:12:09;95642.47;;;36.67;25.72
44297;BME280;51842;47.450;8.654;2022-07-03T15:14:54;95640.13;;;36.81;23.80
44297;BME280;51842;47.450;8.654;2022-07-03T15:17:26;95640.00;;;37.34;22.51
44297;BME280;51842;47.450;8.654;2022-07-03T15:19:59;95641.44;;;38.10;22.67
44297;BME280;51842;47.450;8.654;2022-07-03T15:22:30;95645.66;;;38.78;20.68
44297;BME280;51842;47.450;8.654;2022-07-03T15:24:58;95648.00;;;38.93;22.83
44297;BME280;51842;47.450;8.654;2022-07-03T15:27:34;95637.97;;;38.95;23.63
44297;BME280;51842;47.450;8.654;2022-07-03T15:30:03;95641.50;;;39.08;22.64
44297;BME280;51842;47.450;8.654;2022-07-03T15:32:29;95643.66;;;38.92;24.45
44297;BME280;51842;47.450;8.654;2022-07-03T15:34:58;95640.44;;;38.93;24.18
44297;BME280;51842;47.450;8.654;2022-07-03T15:38:12;95640.03;;;38.44;21.54
44297;BME280;51842;47.450;8.654;2022-07-03T15:40:55;95638.22;;;37.99;21.71
44297;BME280;51842;47.450;8.654;2022-07-03T15:44:02;95638.03;;;37.77;22.71
44297;BME280;51842;47.450;8.654;2022-07-03T15:49:38;95631.75;;;37.31;23.98
44297;BME280;51842;47.450;8.654;2022-07-03T15:52:25;95628.47;;;37.78;24.27
44297;BME280;51842;47.450;8.654;2022-07-03T15:55:08;95629.13;;;37.69;22.84
44297;BME280;51842;47.450;8.654;2022-07-03T15:58:04;95625.84;;;37.28;26.66
44297;BME280;51842;47.450;8.654;2022-07-03T16:00:37;95626.69;;;36.96;27.21
44297;BME280;51842;47.450;8.654;2022-07-03T16:03:26;95623.50;;;36.81;28.34
44297;BME280;51842;47.450;8.654;2022-07-03T16:05:55;95617.97;;;36.65;28.65
44297;BME280;51842;47.450;8.654;2022-07-03T16:08:24;95622.25;;;36.50;28.92
44297;BME280;51842;47.450;8.654;2022-07-03T16:11:03;95614.03;;;36.13;29.63
44297;BME280;51842;47.450;8.654;2022-07-03T16:13:32;95615.22;;;35.76;30.30
44297;BME280;51842;47.450;8.654;2022-07-03T16:16:00;95615.22;;;35.56;31.71
44297;BME280;51842;47.450;8.654;2022-07-03T16:18:28;95616.03;;;35.13;31.76
44297;BME280;51842;47.450;8.654;2022-07-03T16:20:55;95614.41;;;34.69;33.00
44297;BME280;51842;47.450;8.654;2022-07-03T16:23:23;95608.09;;;34.68;33.38
44297;BME280;51842;47.450;8.654;2022-07-03T16:25:55;95609.34;;;35.11;31.82
44297;BME280;51842;47.450;8.654;2022-07-03T16:28:28;95613.34;;;35.69;30.42
44297;BME280;51842;47.450;8.654;2022-07-03T16:31:08;95612.63;;;36.22;26.61
44297;BME280;51842;47.450;8.654;2022-07-03T16:33:44;95612.03;;;36.96;25.58
44297;BME280;51842;47.450;8.654;2022-07-03T16:36:21;95610.03;;;37.13;24.92
44297;BME280;51842;47.450;8.654;2022-07-03T16:39:06;95605.75;;;37.24;26.28
44297;BME280;51842;47.450;8.654;2022-07-03T16:41:40;95598.16;;;37.83;25.12
44297;BME280;51842;47.450;8.654;2022-07-03T16:44:10;95601.28;;;38.36;25.28
44297;BME280;51842;47.450;8.654;2022-07-03T16:46:43;95601.63;;;38.13;24.84
44297;BME280;51842;47.450;8.654;2022-07-03T16:49:13;95593.28;;;38.51;23.78
44297;BME280;51842;47.450;8.654;2022-07-03T16:51:54;95593.75;;;38.24;22.76
44297;BME280;51842;47.450;8.654;2022-07-03T16:54:21;95594.63;;;38.47;23.60
44297;BME280;51842;47.450;8.654;2022-07-03T16:56:49;95599.41;;;38.59;24.50
44297;BME280;51842;47.450;8.654;2022-07-03T16:59:18;95598.97;;;38.48;25.40
44297;BME280;51842;47.450;8.654;2022-07-03T17:01:44;95599.19;;;38.15;25.15
44297;BME280;51842;47.450;8.654;2022-07-03T17:04:12;95595.41;;;38.34;25.22
44297;BME280;51842;47.450;8.654;2022-07-03T17:06:41;95599.16;;;37.89;25.01
44297;BME280;51842;47.450;8.654;2022-07-03T17:09:10;95590.25;;;37.40;26.07
44297;BME280;51842;47.450;8.654;2022-07-03T17:11:42;95594.09;;;37.00;27.64
44297;BME280;51842;47.450;8.654;2022-07-03T17:14:10;95593.94;;;36.42;27.30
44297;BME280;51842;47.450;8.654;2022-07-03T17:16:51;95581.78;;;36.20;28.15
44297;BME280;51842;47.450;8.654;2022-07-03T17:19:25;95582.53;;;35.67;29.42
44297;BME280;51842;47.450;8.654;2022-07-03T17:21:55;95583.91;;;34.96;30.97
44297;BME280;51842;47.450;8.654;2022-07-03T17:24:32;95576.91;;;34.17;30.32
44297;BME280;51842;47.450;8.654;2022-07-03T17:27:04;95582.97;;;33.47;32.93
44297;BME280;51842;47.450;8.654;2022-07-03T17:30:07;95583.91;;;32.95;35.11
44297;BME280;51842;47.450;8.654;2022-07-03T17:32:43;95582.78;;;32.48;35.66
44297;BME280;51842;47.450;8.654;2022-07-03T17:35:25;95581.97;;;31.95;36.01
44297;BME280;51842;47.450;8.654;2022-07-03T17:38:00;95570.00;;;31.53;36.46
44297;BME280;51842;47.450;8.654;2022-07-03T17:40:29;95574.81;;;31.17;38.16
44297;BME280;51842;47.450;8.654;2022-07-03T17:43:02;95578.47;;;30.82;39.81
44297;BME280;51842;47.450;8.654;2022-07-03T17:45:29;95582.03;;;30.47;40.77
44297;BME280;51842;47.450;8.654;2022-07-03T17:48:01;95580.38;;;29.99;41.90
44297;BME280;51842;47.450;8.654;2022-07-03T17:50:34;95575.59;;;29.64;40.31
44297;BME280;51842;47.450;8.654;2022-07-03T17:53:08;95578.66;;;29.41;42.07
44297;BME280;51842;47.450;8.654;2022-07-03T17:55:44;95585.25;;;29.25;42.04
44297;BME280;51842;47.450;8.654;2022-07-03T17:58:15;95586.75;;;29.12;42.63
44297;BME280;51842;47.450;8.654;2022-07-03T18:00:41;95586.19;;;28.85;42.75
44297;BME280;51842;47.450;8.654;2022-07-03T18:03:09;95586.47;;;28.66;44.56
44297;BME280;51842;47.450;8.654;2022-07-03T18:05:41;95580.66;;;28.26;44.43
44297;BME280;51842;47.450;8.654;2022-07-03T18:08:43;95582.00;;;27.99;46.46
44297;BME280;51842;47.450;8.654;2022-07-03T18:14:33;95576.47;;;27.58;46.22
44297;BME280;51842;47.450;8.654;2022-07-03T18:17:08;95581.28;;;27.34;46.63
44297;BME280;51842;47.450;8.654;2022-07-03T18:19:47;95571.03;;;27.28;46.65
44297;BME280;51842;47.450;8.654;2022-07-03T18:22:14;95561.94;;;27.20;46.29
44297;BME280;51842;47.450;8.654;2022-07-03T18:24:43;95559.72;;;26.99;46.53
44297;BME280;51842;47.450;8.654;2022-07-03T18:27:14;95557.56;;;26.85;47.46
44297;BME280;51842;47.450;8.654;2022-07-03T18:29:47;95552.75;;;26.75;47.64
44297;BME280;51842;47.450;8.654;2022-07-03T18:32:18;95549.50;;;26.66;47.93
44297;BME280;51842;47.450;8.654;2022-07-03T18:34:49;95545.44;;;26.52;48.51
44297;BME280;51842;47.450;8.654;2022-07-03T18:37:19;95558.53;;;26.43;48.79
44297;BME280;51842;47.450;8.654;2022-07-03T18:39:45;95554.72;;;26.25;48.58
44297;BME280;51842;47.450;8.654;2022-07-03T18:42:12;95552.50;;;26.07;48.97
44297;BME280;51842;47.450;8.654;2022-07-03T18:44:38;95547.19;;;25.92;50.64
44297;BME280;51842;47.450;8.654;2022-07-03T18:47:05;95548.56;;;25.82;49.51
44297;BME280;51842;47.450;8.654;2022-07-03T18:49:35;95553.03;;;25.71;50.58
44297;BME280;51842;47.450;8.654;2022-07-03T18:52:17;95556.56;;;25.52;51.27
44297;BME280;51842;47.450;8.654;2022-07-03T18:55:22;95559.19;;;25.45;51.74
44297;BME280;51842;47.450;8.654;2022-07-03T19:01:02;95559.31;;;25.13;52.97
44297;BME280;51842;47.450;8.654;2022-07-03T19:04:41;95552.06;;;25.01;52.37
44297;BME280;51842;47.450;8.654;2022-07-03T19:07:12;95540.41;;;24.85;53.08
44297;BME280;51842;47.450;8.654;2022-07-03T19:12:59;95542.84;;;24.70;52.09
44297;BME280;51842;47.450;8.654;2022-07-03T19:15:32;95538.19;;;24.71;52.54
44297;BME280;51842;47.450;8.654;2022-07-03T19:17:59;95556.00;;;24.68;53.14
44297;BME280;51842;47.450;8.654;2022-07-03T19:20:25;95546.41;;;24.55;53.85
44297;BME280;51842;47.450;8.654;2022-07-03T19:22:54;95552.63;;;24.40;54.05
44297;BME280;51842;47.450;8.654;2022-07-03T19:25:21;95557.84;;;24.29;54.11
44297;BME280;51842;47.450;8.654;2022-07-03T19:27:47;95563.47;;;24.20;55.32
44297;BME280;51842;47.450;8.654;2022-07-03T19:30:16;95552.31;;;24.10;56.76
44297;BME280;51842;47.450;8.654;2022-07-03T19:32:44;95557.56;;;24.02;56.43
44297;BME280;51842;47.450;8.654;2022-07-03T19:35:20;95574.75;;;23.91;55.19
44297;BME280;51842;47.450;8.654;2022-07-03T19:37:46;95579.00;;;23.88;56.40
44297;BME280;51842;47.450;8.654;2022-07-03T19:40:15;95582.94;;;23.91;56.09
44297;BME280;51842;47.450;8.654;2022-07-03T19:42:47;95589.59;;;23.93;55.30
44297;BME280;51842;47.450;8.654;2022-07-03T19:45:13;95605.59;;;23.95;55.22
44297;BME280;51842;47.450;8.654;2022-07-03T19:47:41;95617.69;;;23.97;55.24
44297;BME280;51842;47.450;8.654;2022-07-03T19:50:10;95629.38;;;23.98;54.76
44297;BME280;51842;47.450;8.654;2022-07-03T19:52:39;95645.00;;;24.01;54.40
44297;BME280;51842;47.450;8.654;2022-07-03T19:55:06;95666.47;;;24.06;54.24
44297;BME280;51842;47.450;8.654;2022-07-03T19:57:39;95667.81;;;24.12;53.31
44297;BME280;51842;47.450;8.654;2022-07-03T20:00:08;95671.53;;;24.20;52.57
44297;BME280;51842;47.450;8.654;2022-07-03T20:02:37;95679.41;;;24.25;51.95
44297;BME280;51842;47.450;8.654;2022-07-03T20:05:05;95688.91;;;24.31;51.86
44297;BME280;51842;47.450;8.654;2022-07-03T20:07:32;95695.56;;;24.34;51.03
44297;BME280;51842;47.450;8.654;2022-07-03T20:09:58;95705.44;;;24.38;51.32
44297;BME280;51842;47.450;8.654;2022-07-03T20:12:25;95704.75;;;24.41;50.71
44297;BME280;51842;47.450;8.654;2022-07-03T20:14:54;95696.69;;;24.45;50.21
44297;BME280;51842;47.450;8.654;2022-07-03T20:17:25;95695.53;;;24.46;50.01
44297;BME280;51842;47.450;8.654;2022-07-03T20:19:54;95704.47;;;24.46;50.33
44297;BME280;51842;47.450;8.654;2022-07-03T20:22:21;95700.97;;;24.46;50.08
44297;BME280;51842;47.450;8.654;2022-07-03T20:24:46;95690.44;;;24.44;49.86
44297;BME280;51842;47.450;8.654;2022-07-03T20:27:15;95694.28;;;24.43;51.06
44297;BME280;51842;47.450;8.654;2022-07-03T20:29:45;95685.13;;;24.36;53.23
44297;BME280;51842;47.450;8.654;2022-07-03T20:32:17;95678.63;;;24.24;53.90
44297;BME280;51842;47.450;8.654;2022-07-03T20:34:43;95686.06;;;24.12;53.65
44297;BME280;51842;47.450;8.654;2022-07-03T20:37:12;95689.72;;;24.04;53.46
44297;BME280;51842;47.450;8.654;2022-07-03T20:39:41;95698.94;;;23.99;53.69
44297;BME280;51842;47.450;8.654;2022-07-03T20:42:11;95696.13;;;23.95;53.11
44297;BME280;51842;47.450;8.654;2022-07-03T20:44:39;95701.13;;;23.93;52.58
44297;BME280;51842;47.450;8.654;2022-07-03T20:47:11;95712.09;;;23.97;52.35
44297;BME280;51842;47.450;8.654;2022-07-03T20:49:40;95726.50;;;23.97;51.71
44297;BME280;51842;47.450;8.654;2022-07-03T20:52:15;95736.69;;;24.00;52.02
44297;BME280;51842;47.450;8.654;2022-07-03T20:54:41;95740.22;;;24.01;51.59
44297;BME280;51842;47.450;8.654;2022-07-03T20:57:10;95739.41;;;24.00;52.10
44297;BME280;51842;47.450;8.654;2022-07-03T20:59:39;95745.38;;;24.06;52.75
44297;BME280;51842;47.450;8.654;2022-07-03T21:02:05;95760.59;;;24.07;53.00
44297;BME280;51842;47.450;8.654;2022-07-03T21:04:43;95765.47;;;24.01;55.86
44297;BME280;51842;47.450;8.654;2022-07-03T21:07:24;95771.50;;;23.95;55.03
44297;BME280;51842;47.450;8.654;2022-07-03T21:09:50;95787.28;;;23.89;56.54
44297;BME280;51842;47.450;8.654;2022-07-03T21:12:16;95802.94;;;23.80;56.39
44297;BME280;51842;47.450;8.654;2022-07-03T21:14:41;95808.59;;;23.63;57.68
44297;BME280;51842;47.450;8.654;2022-07-03T21:17:07;95813.06;;;23.55;59.91
44297;BME280;51842;47.450;8.654;2022-07-03T21:19:34;95820.06;;;23.56;62.21
44297;BME280;51842;47.450;8.654;2022-07-03T21:22:00;95803.09;;;23.47;58.87
44297;BME280;51842;47.450;8.654;2022-07-03T21:24:27;95794.50;;;23.32;63.69
44297;BME280;51842;47.450;8.654;2022-07-03T21:26:53;95791.22;;;23.02;66.65
44297;BME280;51842;47.450;8.654;2022-07-03T21:29:22;95788.81;;;22.76;66.89
44297;BME280;51842;47.450;8.654;2022-07-03T21:31:55;95795.19;;;22.47;69.22
44297;BME280;51842;47.450;8.654;2022-07-03T21:34:23;95819.06;;;22.21;68.81
44297;BME280;51842;47.450;8.654;2022-07-03T21:36:49;95839.63;;;22.01;68.01
44297;BME280;51842;47.450;8.654;2022-07-03T21:39:18;95833.28;;;21.97;67.13
44297;BME280;51842;47.450;8.654;2022-07-03T21:41:44;95845.78;;;21.89;66.63
44297;BME280;51842;47.450;8.654;2022-07-03T21:44:10;95845.84;;;21.80;65.29
44297;BME280;51842;47.450;8.654;2022-07-03T21:46:37;95840.28;;;21.77;65.76
44297;BME280;51842;47.450;8.654;2022-07-03T21:49:09;95838.59;;;21.72;66.07
44297;BME280;51842;47.450;8.654;2022-07-03T21:51:42;95822.16;;;21.68;66.56
44297;BME280;51842;47.450;8.654;2022-07-03T21:54:08;95840.06;;;21.61;69.08
44297;BME280;51842;47.450;8.654;2022-07-03T21:56:34;95855.28;;;21.53;70.48
44297;BME280;51842;47.450;8.654;2022-07-03T21:59:08;95860.13;;;21.39;71.40
44297;BME280;51842;47.450;8.654;2022-07-03T22:01:36;95855.72;;;21.25;71.34
44297;BME280;51842;47.450;8.654;2022-07-03T22:04:03;95841.06;;;21.18;72.23
